Amity, Indiana
Current Conditions -  °F | °C
As of 6:55 PM on Monday 20 Oct 2014 (Local Time) from K1II Reporting Station
Broken Clouds Broken Clouds  
Wind Chill: 64°   Ceiling: 6000
Heat Index: 64°   Visibility: 10mi
Dew Point: 46°   Wind: 3mph
Humidity: 52%   Direction: 290°WNW
Pressure: 29.88"   Gusts: NA
Location:  39.4841°N, 86.0843°W
Report Text: K1II 202255Z AUTO 29003KT 10SM BKN060 BKN080 18/08 A2988 RMK AO2
Loading
Personal Weather Stations






























Interactive Weather Map
Tropical Storm Tracking
New forecast layout! Learn more

10-Day Weather Forecast

Advertisements
Track Severe Weather on mobile